createdAt,value
2023-01-17T00:02:04.319Z,19.25
2023-01-17T00:05:25.882Z,19.93
2023-01-17T00:08:46.804Z,19.77
2023-01-17T00:11:49.568Z,20.77
2023-01-17T00:14:54.586Z,19.90
2023-01-17T00:17:58.022Z,21.02
2023-01-17T00:21:35.893Z,20.87
2023-01-17T00:24:57.416Z,21.33
2023-01-17T00:28:00.158Z,20.65
2023-01-17T00:31:04.060Z,21.77
2023-01-17T00:34:06.364Z,20.23
2023-01-17T00:37:08.893Z,20.50
2023-01-17T00:40:11.537Z,20.27
2023-01-17T00:43:36.788Z,18.52
2023-01-17T00:46:57.648Z,19.95
2023-01-17T00:50:18.847Z,17.62
2023-01-17T00:53:39.839Z,18.10
2023-01-17T00:57:01.200Z,20.95
2023-01-17T01:00:23.651Z,19.83
2023-01-17T01:03:44.806Z,18.60
2023-01-17T01:07:05.872Z,18.10
2023-01-17T01:10:27.870Z,18.13
2023-01-17T01:13:50.849Z,19.58
2023-01-17T01:17:11.750Z,19.08
2023-01-17T01:20:32.526Z,17.85
2023-01-17T01:23:54.262Z,20.27
2023-01-17T01:27:15.106Z,18.83
2023-01-17T01:30:36.396Z,20.27
2023-01-17T01:33:39.034Z,17.58
2023-01-17T01:36:41.655Z,17.70
2023-01-17T01:39:44.080Z,18.62
2023-01-17T01:42:57.439Z,17.37
2023-01-17T01:45:59.814Z,18.83
2023-01-17T01:49:29.672Z,20.17
2023-01-17T01:52:34.751Z,16.95
2023-01-17T01:55:40.881Z,17.12
2023-01-17T01:58:49.396Z,18.87
2023-01-17T02:01:55.364Z,17.48
2023-01-17T02:04:59.777Z,17.90
2023-01-17T02:08:08.326Z,19.42
2023-01-17T02:11:11.666Z,18.08
2023-01-17T02:14:18.492Z,16.87
2023-01-17T02:17:29.991Z,18.73
2023-01-17T02:20:57.220Z,19.98
2023-01-17T02:24:15.197Z,18.55
2023-01-17T02:27:55.838Z,19.62
2023-01-17T02:31:08.994Z,20.13
2023-01-17T02:34:25.246Z,21.02
2023-01-17T02:37:49.177Z,21.73
2023-01-17T02:41:07.889Z,19.60
2023-01-17T02:44:15.379Z,22.02
2023-01-17T02:47:28.041Z,21.47
2023-01-17T02:51:03.074Z,20.23
2023-01-17T02:54:28.356Z,21.55
2023-01-17T02:57:37.114Z,19.77
2023-01-17T03:00:57.950Z,20.50
2023-01-17T03:04:50.182Z,20.57
2023-01-17T03:07:53.808Z,19.92
2023-01-17T03:10:57.426Z,19.65
2023-01-17T03:13:59.900Z,17.98
2023-01-17T03:17:02.656Z,18.83
2023-01-17T03:20:05.476Z,19.67
2023-01-17T03:23:08.148Z,17.08
2023-01-17T03:26:10.517Z,17.52
2023-01-17T03:29:13.860Z,16.90
2023-01-17T03:32:16.139Z,17.33
2023-01-17T03:35:18.858Z,15.67
2023-01-17T03:38:21.209Z,16.35
2023-01-17T03:41:23.899Z,17.83
2023-01-17T03:44:26.300Z,15.63
2023-01-17T03:47:28.959Z,15.25
2023-01-17T03:50:31.470Z,15.13
2023-01-17T03:53:34.138Z,15.57
2023-01-17T03:56:36.486Z,15.15
2023-01-17T03:59:39.138Z,15.35
2023-01-17T04:02:41.616Z,14.48
2023-01-17T04:05:44.268Z,13.50
2023-01-17T04:08:46.629Z,12.98
2023-01-17T04:11:50.959Z,13.52
2023-01-17T04:14:53.469Z,12.88
2023-01-17T04:17:56.601Z,12.25
2023-01-17T04:20:58.913Z,12.47
2023-01-17T04:24:01.542Z,11.68
2023-01-17T04:27:07.068Z,12.20
2023-01-17T04:30:10.485Z,12.10
2023-01-17T04:33:12.863Z,12.23
2023-01-17T04:36:15.513Z,10.70
2023-01-17T04:39:17.935Z,10.98
2023-01-17T04:42:20.578Z,11.40
2023-01-17T04:45:23.176Z,11.52
2023-01-17T04:48:27.263Z,11.32
2023-01-17T04:51:29.654Z,9.57
2023-01-17T04:54:32.324Z,10.00
2023-01-17T04:57:34.870Z,9.38
2023-01-17T05:00:37.490Z,9.20
2023-01-17T05:03:39.925Z,8.60
2023-01-17T05:06:43.257Z,8.83
2023-01-17T05:09:45.654Z,7.82
2023-01-17T05:12:59.176Z,7.82
2023-01-17T05:16:01.519Z,6.30
2023-01-17T05:19:04.320Z,6.65
2023-01-17T05:22:14.877Z,5.50
2023-01-17T05:25:17.667Z,6.00
2023-01-17T05:28:20.014Z,6.00
2023-01-17T05:31:22.754Z,6.07
2023-01-17T05:34:25.246Z,5.50
2023-01-17T05:37:27.844Z,6.70
2023-01-17T05:40:32.954Z,6.40
2023-01-17T05:43:35.585Z,7.43
2023-01-17T05:46:37.999Z,5.78
2023-01-17T05:49:40.675Z,6.80
2023-01-17T05:52:49.777Z,6.10
2023-01-17T05:55:52.773Z,6.25
2023-01-17T05:58:55.222Z,5.40
2023-01-17T06:01:58.205Z,5.43
2023-01-17T06:05:03.271Z,5.32
2023-01-17T06:08:06.050Z,5.00
2023-01-17T06:11:08.819Z,5.03
2023-01-17T06:14:11.222Z,4.47
2023-01-17T06:17:13.835Z,4.43
2023-01-17T06:20:16.254Z,3.92
2023-01-17T06:23:19.052Z,4.07
2023-01-17T06:26:21.418Z,3.53
2023-01-17T06:29:24.133Z,4.07
2023-01-17T06:32:26.471Z,3.70
2023-01-17T06:35:29.583Z,3.75
2023-01-17T06:38:34.833Z,3.50
2023-01-17T06:41:37.701Z,4.05
2023-01-17T06:44:40.034Z,4.05
2023-01-17T06:47:42.953Z,4.22
2023-01-17T06:50:46.733Z,4.37
2023-01-17T06:53:49.450Z,4.03
2023-01-17T06:56:51.892Z,4.20
2023-01-17T06:59:54.522Z,3.97
2023-01-17T07:02:56.851Z,4.00
2023-01-17T07:06:02.203Z,4.50
2023-01-17T07:09:04.797Z,4.30
2023-01-17T07:12:07.729Z,4.75
2023-01-17T07:15:11.194Z,4.12
2023-01-17T07:18:14.739Z,4.37
2023-01-17T07:21:17.277Z,4.87
2023-01-17T07:24:21.479Z,4.07
2023-01-17T07:27:24.819Z,4.62
2023-01-17T07:30:27.818Z,4.15
2023-01-17T07:33:30.166Z,4.65
2023-01-17T07:36:33.434Z,4.50
2023-01-17T07:39:37.328Z,3.90
2023-01-17T07:42:40.012Z,3.37
2023-01-17T07:45:50.736Z,2.10
2023-01-17T07:48:53.422Z,1.90
2023-01-17T07:51:55.812Z,2.37
2023-01-17T07:54:58.613Z,1.90
2023-01-17T07:58:02.947Z,1.92
2023-01-17T08:01:09.152Z,2.30
2023-01-17T08:04:11.952Z,1.92
2023-01-17T08:07:14.536Z,2.87
2023-01-17T08:10:19.964Z,1.80
2023-01-17T08:13:22.512Z,1.85
2023-01-17T08:16:25.758Z,1.27
2023-01-17T08:19:28.111Z,1.35
2023-01-17T08:22:31.107Z,1.55
2023-01-17T08:25:35.382Z,0.90
2023-01-17T08:28:38.149Z,0.90
2023-01-17T08:31:40.668Z,0.90
2023-01-17T08:34:43.350Z,1.02
2023-01-17T08:37:46.340Z,1.17
2023-01-17T08:40:49.142Z,0.83
2023-01-17T08:43:52.126Z,1.10
2023-01-17T08:46:54.760Z,1.02
2023-01-17T08:49:59.644Z,0.62
2023-01-17T08:53:02.307Z,1.05
2023-01-17T08:56:05.798Z,1.87
2023-01-17T08:59:11.895Z,1.42
2023-01-17T09:02:15.791Z,2.28
2023-01-17T09:05:18.451Z,1.45
2023-01-17T09:08:20.927Z,1.35
2023-01-17T09:11:23.583Z,2.77
2023-01-17T09:14:25.971Z,1.20
2023-01-17T09:17:29.085Z,1.10
2023-01-17T09:20:31.697Z,0.80
2023-01-17T09:23:34.301Z,1.10
2023-01-17T09:26:36.683Z,1.13
2023-01-17T09:29:39.315Z,0.98
2023-01-17T09:32:41.759Z,1.05
2023-01-17T09:35:45.084Z,1.10
2023-01-17T09:38:47.987Z,1.30
2023-01-17T09:42:26.156Z,1.00
2023-01-17T09:45:31.982Z,1.20
2023-01-17T09:48:38.789Z,1.80
2023-01-17T09:51:42.448Z,2.40
2023-01-17T09:54:48.089Z,1.10
2023-01-17T09:58:10.137Z,0.90
2023-01-17T10:01:31.676Z,1.17
2023-01-17T10:04:58.616Z,1.20
2023-01-17T10:08:16.661Z,1.12
2023-01-17T10:11:40.147Z,1.10
2023-01-17T10:15:03.174Z,1.17
2023-01-17T10:18:30.377Z,1.48
2023-01-17T10:22:02.345Z,1.62
2023-01-17T10:25:23.224Z,1.17
2023-01-17T10:28:33.565Z,1.60
2023-01-17T10:31:51.204Z,1.43
2023-01-17T10:34:53.697Z,1.60
2023-01-17T10:37:58.521Z,1.85
2023-01-17T10:41:21.970Z,1.40
2023-01-17T10:44:35.437Z,1.30
2023-01-17T10:47:39.504Z,1.20
2023-01-17T10:51:04.945Z,1.23
2023-01-17T10:54:24.218Z,1.02
2023-01-17T10:57:28.195Z,1.52
2023-01-17T11:00:52.393Z,1.20
2023-01-17T11:03:55.423Z,1.30
2023-01-17T11:07:24.725Z,1.30
2023-01-17T11:10:48.968Z,0.90
2023-01-17T11:13:53.332Z,0.73
2023-01-17T11:17:04.612Z,1.30
2023-01-17T11:20:35.257Z,0.97
2023-01-17T11:23:41.228Z,1.25
2023-01-17T11:26:49.573Z,1.30
2023-01-17T11:30:07.642Z,1.20
2023-01-17T11:33:45.348Z,1.17
2023-01-17T11:36:50.055Z,1.10
2023-01-17T11:40:08.134Z,1.50
2023-01-17T11:43:18.724Z,1.60
2023-01-17T11:46:21.882Z,1.10
2023-01-17T11:49:25.553Z,1.40
2023-01-17T11:52:37.587Z,1.97
2023-01-17T11:55:40.843Z,0.95
2023-01-17T11:58:45.899Z,1.12
2023-01-17T12:02:01.199Z,1.40
2023-01-17T12:05:15.370Z,1.45
2023-01-17T12:08:20.810Z,1.90
2023-01-17T12:12:07.285Z,1.30
2023-01-17T12:15:21.393Z,1.52
2023-01-17T12:18:33.562Z,1.20
2023-01-17T12:21:46.630Z,1.50
2023-01-17T12:24:52.305Z,1.20
2023-01-17T12:28:06.493Z,1.37
2023-01-17T12:31:44.687Z,1.50
2023-01-17T12:34:57.308Z,1.45
2023-01-17T12:38:11.398Z,3.15
2023-01-17T12:41:30.416Z,3.10
2023-01-17T12:45:07.561Z,2.00
2023-01-17T12:48:16.691Z,2.00
2023-01-17T12:51:29.032Z,1.95
2023-01-17T12:54:39.797Z,2.35
2023-01-17T12:57:47.797Z,1.83
2023-01-17T13:00:59.711Z,1.62
2023-01-17T13:04:09.056Z,1.90
2023-01-17T13:07:33.067Z,1.80
2023-01-17T13:10:58.773Z,1.67
2023-01-17T13:14:02.361Z,1.77
2023-01-17T13:17:22.543Z,2.40
2023-01-17T13:20:58.304Z,1.40
2023-01-17T13:24:03.900Z,1.70
2023-01-17T13:27:12.684Z,1.70
2023-01-17T13:30:34.605Z,1.83
2023-01-17T13:33:47.800Z,1.90
2023-01-17T13:37:00.727Z,2.20
2023-01-17T13:40:05.710Z,2.40
2023-01-17T13:43:22.193Z,2.45
2023-01-17T13:46:24.569Z,2.63
2023-01-17T13:49:34.693Z,2.17
2023-01-17T13:52:38.255Z,2.17
2023-01-17T13:55:46.827Z,2.30
2023-01-17T13:58:54.540Z,3.03
2023-01-17T14:01:57.720Z,3.47
2023-01-17T14:05:32.097Z,2.78
2023-01-17T14:08:38.770Z,2.75
2023-01-17T14:12:09.115Z,2.35
2023-01-17T14:15:23.008Z,2.65
2023-01-17T14:18:38.129Z,3.40
2023-01-17T14:21:40.673Z,2.55
2023-01-17T14:25:00.990Z,2.60
2023-01-17T14:28:19.031Z,3.87
2023-01-17T14:31:24.300Z,2.85
2023-01-17T14:34:26.836Z,2.73
2023-01-17T14:37:46.568Z,2.72
2023-01-17T14:41:02.726Z,3.20
2023-01-17T14:44:05.402Z,2.58
2023-01-17T14:47:13.895Z,3.12
2023-01-17T14:50:23.677Z,2.80
2023-01-17T14:53:31.687Z,2.53
2023-01-17T14:56:34.472Z,2.85
2023-01-17T14:59:36.798Z,2.62
2023-01-17T15:02:44.179Z,3.00
2023-01-17T15:05:51.033Z,2.50
2023-01-17T15:08:54.268Z,2.78
2023-01-17T15:11:58.097Z,3.47
2023-01-17T15:15:01.666Z,3.62
2023-01-17T15:18:27.590Z,3.85
2023-01-17T15:21:35.494Z,2.60
2023-01-17T15:24:43.481Z,3.87
2023-01-17T15:27:46.072Z,3.53
2023-01-17T15:31:03.752Z,3.47
2023-01-17T15:34:14.123Z,3.47
2023-01-17T15:37:40.663Z,3.97
2023-01-17T15:40:43.719Z,4.12
2023-01-17T15:43:46.403Z,4.43
2023-01-17T15:46:49.130Z,3.28
2023-01-17T15:49:52.198Z,4.18
2023-01-17T15:53:06.034Z,3.80
2023-01-17T15:56:31.940Z,4.25
2023-01-17T15:59:50.471Z,3.87
2023-01-17T16:02:59.038Z,3.60
2023-01-17T16:06:03.046Z,4.10
2023-01-17T16:09:22.355Z,3.30
2023-01-17T16:12:25.056Z,3.92
2023-01-17T16:15:28.877Z,3.90
2023-01-17T16:18:31.673Z,2.92
2023-01-17T16:21:34.125Z,3.42
2023-01-17T16:24:37.238Z,3.50
2023-01-17T16:27:41.504Z,3.80
2023-01-17T16:30:45.177Z,3.20
2023-01-17T16:33:49.473Z,3.67
2023-01-17T16:36:54.444Z,3.85
2023-01-17T16:39:57.117Z,4.23
2023-01-17T16:43:01.114Z,3.33
2023-01-17T16:46:03.628Z,3.80
2023-01-17T16:49:06.439Z,4.25
2023-01-17T16:52:08.902Z,3.60
2023-01-17T16:55:15.031Z,3.80
2023-01-17T16:58:20.440Z,3.62
2023-01-17T17:01:23.683Z,3.33
2023-01-17T17:04:26.127Z,3.42
2023-01-17T17:07:28.831Z,2.92
2023-01-17T17:10:31.552Z,3.13
2023-01-17T17:13:36.031Z,3.78
2023-01-17T17:16:39.140Z,4.82
2023-01-17T17:19:41.855Z,4.28
2023-01-17T17:22:50.294Z,4.35
2023-01-17T17:25:56.894Z,4.00
2023-01-17T17:28:59.335Z,3.75
2023-01-17T17:32:02.111Z,3.85
2023-01-17T17:35:05.223Z,3.72
2023-01-17T17:38:08.010Z,4.00
2023-01-17T17:41:10.377Z,3.20
2023-01-17T17:44:13.238Z,3.55
2023-01-17T17:47:16.175Z,3.42
2023-01-17T17:50:18.969Z,3.87
2023-01-17T17:53:21.791Z,4.07
2023-01-17T17:56:24.582Z,4.03
2023-01-17T17:59:27.015Z,4.03
2023-01-17T18:02:31.619Z,4.20
2023-01-17T18:05:34.392Z,4.60
2023-01-17T18:08:38.487Z,5.00
2023-01-17T18:11:43.342Z,4.13
2023-01-17T18:14:45.714Z,5.00
2023-01-17T18:17:52.496Z,5.50
2023-01-17T18:20:55.048Z,5.72
2023-01-17T18:24:00.308Z,6.05
2023-01-17T18:27:02.857Z,5.93
2023-01-17T18:30:06.150Z,5.28
2023-01-17T18:33:09.852Z,5.40
2023-01-17T18:36:13.353Z,4.68
2023-01-17T18:39:27.291Z,4.35
2023-01-17T18:42:31.152Z,4.43
2023-01-17T18:45:33.517Z,4.05
2023-01-17T18:48:37.182Z,4.40
2023-01-17T18:51:39.571Z,4.00
2023-01-17T18:54:42.276Z,5.15
2023-01-17T18:57:44.710Z,3.83
2023-01-17T19:00:50.330Z,4.78
2023-01-17T19:03:56.386Z,4.65
2023-01-17T19:06:59.014Z,4.35
2023-01-17T19:10:02.130Z,3.90
2023-01-17T19:13:04.855Z,3.87
2023-01-17T19:16:09.709Z,3.90
2023-01-17T19:19:14.812Z,4.07
2023-01-17T19:22:17.752Z,4.47
2023-01-17T19:25:21.192Z,5.25
2023-01-17T19:28:23.781Z,4.50
2023-01-17T19:31:28.562Z,4.78
2023-01-17T19:34:31.325Z,3.33
2023-01-17T19:37:34.318Z,3.45
2023-01-17T19:40:36.895Z,2.45
2023-01-17T19:43:39.881Z,2.43
2023-01-17T19:46:42.418Z,2.40
2023-01-17T19:49:45.695Z,2.75
2023-01-17T19:52:48.178Z,2.87
2023-01-17T19:55:51.089Z,2.85
2023-01-17T19:58:54.042Z,2.37
2023-01-17T20:01:59.446Z,1.80
2023-01-17T20:05:02.545Z,2.22
2023-01-17T20:08:05.026Z,1.90
2023-01-17T20:11:10.896Z,1.75
2023-01-17T20:14:14.993Z,1.20
2023-01-17T20:17:17.841Z,1.40
2023-01-17T20:20:22.806Z,1.52
2023-01-17T20:23:25.597Z,1.15
2023-01-17T20:26:36.769Z,1.55
2023-01-17T20:29:40.766Z,1.37
2023-01-17T20:32:43.110Z,1.45
2023-01-17T20:35:46.260Z,1.40
2023-01-17T20:38:49.097Z,1.40
2023-01-17T20:41:52.110Z,1.17
2023-01-17T20:44:54.480Z,1.50
2023-01-17T20:47:57.477Z,1.60
2023-01-17T20:51:10.561Z,1.20
2023-01-17T20:54:17.852Z,1.17
2023-01-17T20:57:20.281Z,1.50
2023-01-17T21:00:22.978Z,1.40
2023-01-17T21:03:29.615Z,1.17
2023-01-17T21:06:32.290Z,1.48
2023-01-17T21:09:34.713Z,1.70
2023-01-17T21:12:37.521Z,1.67
2023-01-17T21:15:48.099Z,1.70
2023-01-17T21:18:52.326Z,1.65
2023-01-17T21:21:56.271Z,1.85
2023-01-17T21:25:00.309Z,1.80
2023-01-17T21:28:05.915Z,2.12
2023-01-17T21:31:20.451Z,1.50
2023-01-17T21:34:25.459Z,1.52
2023-01-17T21:37:28.297Z,1.80
2023-01-17T21:40:31.233Z,1.67
2023-01-17T21:43:34.418Z,1.52
2023-01-17T21:46:39.218Z,1.33
2023-01-17T21:49:41.930Z,1.25
2023-01-17T21:52:46.517Z,1.30
2023-01-17T21:56:08.825Z,1.70
2023-01-17T21:59:11.178Z,1.30
2023-01-17T22:02:13.851Z,1.20
2023-01-17T22:05:18.028Z,0.90
2023-01-17T22:08:20.669Z,1.50
2023-01-17T22:11:25.890Z,1.40
2023-01-17T22:14:28.234Z,1.60
2023-01-17T22:17:30.982Z,1.50
2023-01-17T22:20:34.210Z,1.90
2023-01-17T22:23:36.848Z,1.73
2023-01-17T22:26:41.808Z,2.00
2023-01-17T22:29:44.575Z,1.85
2023-01-17T22:32:46.999Z,1.70
2023-01-17T22:35:57.791Z,1.30
2023-01-17T22:39:00.904Z,1.70
2023-01-17T22:42:03.682Z,1.37
2023-01-17T22:45:07.835Z,1.60
2023-01-17T22:48:10.650Z,1.83
2023-01-17T22:51:15.374Z,1.70
2023-01-17T22:54:19.421Z,1.87
2023-01-17T22:57:23.242Z,2.00
2023-01-17T23:00:25.945Z,1.45
2023-01-17T23:03:28.400Z,1.83
2023-01-17T23:06:36.986Z,2.37
2023-01-17T23:09:39.261Z,1.95
2023-01-17T23:12:41.995Z,1.60
2023-01-17T23:16:02.962Z,1.77
2023-01-17T23:19:23.911Z,1.97
2023-01-17T23:22:29.125Z,1.50
2023-01-17T23:25:31.702Z,1.55
2023-01-17T23:28:34.211Z,1.60
2023-01-17T23:31:36.864Z,2.10
2023-01-17T23:34:39.214Z,1.70
2023-01-17T23:38:00.684Z,1.35
2023-01-17T23:41:24.727Z,1.45
2023-01-17T23:44:31.682Z,1.40
2023-01-17T23:47:34.119Z,1.48
2023-01-17T23:50:41.760Z,1.53
2023-01-17T23:53:44.049Z,1.65
2023-01-17T23:56:46.684Z,1.70
2023-01-17T23:59:49.033Z,1.90
